Terminal Aerodrome Forecast
Issued by NWS Blacksburg, VA

Current Version | Previous Version | Graphics & Text | Print | Product List | Glossary On
Versions: 1 2 3 4 5 6 7 8 9 10 11 12 13 14 15 16 17 18 19 20 21 22 23 24 25 26 27 28 29 30 31 32 33 34 35 36 37 38 39 40 41 42 43 44 45 46 47 48 49 50
544
FTUS41 KRNK 160408 AAA
TAFBLF
TAF AMD
KBLF 160408Z 1604/1624 00000KT 1SM -RA BR OVC008
     FM160800 VRB03KT 2SM -DZ BR OVC003
     FM161500 23003KT 6SM BR OVC020
     FM161900 21006KT P6SM BKN050=

USA.gov is the U.S. government's official web portal to all federal, state and local government web resources and services.